sensor_id;sensor_type;location;lat;lon;timestamp;pressure;altitude;pressure_sealevel;temperature;humidity
39141;BME280;24875;48.436;10.298;2024-02-15T00:01:18;96769.72;;;10.44;100.00
39141;BME280;24875;48.436;10.298;2024-02-15T00:03:44;96769.72;;;10.44;100.00
39141;BME280;24875;48.436;10.298;2024-02-15T00:06:12;96775.66;;;10.62;100.00
39141;BME280;24875;48.436;10.298;2024-02-15T00:08:39;96772.84;;;10.56;100.00
39141;BME280;24875;48.436;10.298;2024-02-15T00:11:05;96777.13;;;10.57;100.00
39141;BME280;24875;48.436;10.298;2024-02-15T00:13:34;96774.34;;;10.58;100.00
39141;BME280;24875;48.436;10.298;2024-02-15T00:16:01;96768.91;;;10.60;100.00
39141;BME280;24875;48.436;10.298;2024-02-15T00:18:28;96770.56;;;10.61;100.00
39141;BME280;24875;48.436;10.298;2024-02-15T00:20:55;96769.56;;;10.54;100.00
39141;BME280;24875;48.436;10.298;2024-02-15T00:23:23;96769.22;;;10.73;100.00
39141;BME280;24875;48.436;10.298;2024-02-15T00:25:50;96768.25;;;10.58;100.00
39141;BME280;24875;48.436;10.298;2024-02-15T00:28:16;96755.72;;;10.52;100.00
39141;BME280;24875;48.436;10.298;2024-02-15T00:30:43;96759.69;;;10.48;100.00
39141;BME280;24875;48.436;10.298;2024-02-15T00:33:10;96758.84;;;10.47;100.00
39141;BME280;24875;48.436;10.298;2024-02-15T00:35:36;96763.78;;;10.50;100.00
39141;BME280;24875;48.436;10.298;2024-02-15T00:38:03;96761.97;;;10.51;100.00
39141;BME280;24875;48.436;10.298;2024-02-15T00:40:32;96763.31;;;10.63;100.00
39141;BME280;24875;48.436;10.298;2024-02-15T00:42:58;96766.59;;;10.49;100.00
39141;BME280;24875;48.436;10.298;2024-02-15T00:45:25;96767.91;;;10.53;100.00
39141;BME280;24875;48.436;10.298;2024-02-15T00:47:51;96758.88;;;10.55;100.00
39141;BME280;24875;48.436;10.298;2024-02-15T00:50:19;96761.16;;;10.58;100.00
39141;BME280;24875;48.436;10.298;2024-02-15T00:52:45;96761.66;;;10.62;100.00
39141;BME280;24875;48.436;10.298;2024-02-15T00:55:12;96754.41;;;10.56;100.00
39141;BME280;24875;48.436;10.298;2024-02-15T00:57:40;96751.59;;;10.81;100.00
39141;BME280;24875;48.436;10.298;2024-02-15T01:00:07;96752.44;;;10.66;100.00
39141;BME280;24875;48.436;10.298;2024-02-15T01:02:35;96748.47;;;10.70;100.00
39141;BME280;24875;48.436;10.298;2024-02-15T01:05:02;96746.50;;;10.72;100.00
39141;BME280;24875;48.436;10.298;2024-02-15T01:07:29;96753.91;;;10.68;100.00
39141;BME280;24875;48.436;10.298;2024-02-15T01:09:55;96760.66;;;10.71;100.00
39141;BME280;24875;48.436;10.298;2024-02-15T01:12:22;96768.06;;;10.75;100.00
39141;BME280;24875;48.436;10.298;2024-02-15T01:14:50;96758.34;;;10.92;100.00
39141;BME280;24875;48.436;10.298;2024-02-15T01:17:16;96761.00;;;10.84;100.00
39141;BME280;24875;48.436;10.298;2024-02-15T01:19:43;96763.47;;;10.85;100.00
39141;BME280;24875;48.436;10.298;2024-02-15T01:22:10;96764.44;;;10.84;100.00
39141;BME280;24875;48.436;10.298;2024-02-15T01:24:36;96771.03;;;10.72;100.00
39141;BME280;24875;48.436;10.298;2024-02-15T01:27:03;96763.13;;;10.88;100.00
39141;BME280;24875;48.436;10.298;2024-02-15T01:29:32;96761.34;;;10.81;100.00
39141;BME280;24875;48.436;10.298;2024-02-15T01:32:01;96757.34;;;11.00;100.00
39141;BME280;24875;48.436;10.298;2024-02-15T01:34:27;96758.50;;;10.90;100.00
39141;BME280;24875;48.436;10.298;2024-02-15T01:36:54;96757.34;;;11.00;100.00
39141;BME280;24875;48.436;10.298;2024-02-15T01:39:20;96762.28;;;11.03;100.00
39141;BME280;24875;48.436;10.298;2024-02-15T01:41:47;96755.22;;;10.96;100.00
39141;BME280;24875;48.436;10.298;2024-02-15T01:44:16;96752.72;;;10.94;100.00
39141;BME280;24875;48.436;10.298;2024-02-15T01:46:43;96758.16;;;10.93;100.00
39141;BME280;24875;48.436;10.298;2024-02-15T01:49:14;96748.59;;;11.08;100.00
39141;BME280;24875;48.436;10.298;2024-02-15T01:51:42;96746.78;;;11.00;100.00
39141;BME280;24875;48.436;10.298;2024-02-15T01:54:09;96754.72;;;10.93;100.00
39141;BME280;24875;48.436;10.298;2024-02-15T01:56:36;96752.09;;;10.85;100.00
39141;BME280;24875;48.436;10.298;2024-02-15T01:59:04;96746.16;;;10.91;100.00
39141;BME280;24875;48.436;10.298;2024-02-15T02:01:32;96744.19;;;10.93;100.00
39141;BME280;24875;48.436;10.298;2024-02-15T02:03:58;96740.88;;;10.83;100.00
39141;BME280;24875;48.436;10.298;2024-02-15T02:06:28;96742.19;;;10.94;100.00
39141;BME280;24875;48.436;10.298;2024-02-15T02:08:55;96735.63;;;10.75;100.00
39141;BME280;24875;48.436;10.298;2024-02-15T02:11:21;96746.97;;;10.75;100.00
39141;BME280;24875;48.436;10.298;2024-02-15T02:13:47;96732.50;;;10.71;100.00
39141;BME280;24875;48.436;10.298;2024-02-15T02:16:26;96729.00;;;11.02;100.00
39141;BME280;24875;48.436;10.298;2024-02-15T02:18:54;96727.91;;;10.73;100.00
39141;BME280;24875;48.436;10.298;2024-02-15T02:21:21;96732.97;;;10.59;100.00
39141;BME280;24875;48.436;10.298;2024-02-15T02:23:52;96730.19;;;10.76;100.00
39141;BME280;24875;48.436;10.298;2024-02-15T02:26:21;96725.75;;;10.69;100.00
39141;BME280;24875;48.436;10.298;2024-02-15T02:28:47;96721.81;;;10.49;100.00
39141;BME280;24875;48.436;10.298;2024-02-15T02:31:14;96735.81;;;10.33;100.00
39141;BME280;24875;48.436;10.298;2024-02-15T02:33:41;96733.31;;;10.32;100.00
39141;BME280;24875;48.436;10.298;2024-02-15T02:36:08;96728.69;;;10.18;100.00
39141;BME280;24875;48.436;10.298;2024-02-15T02:38:37;96729.81;;;10.08;100.00
39141;BME280;24875;48.436;10.298;2024-02-15T02:41:04;96734.91;;;10.09;100.00
39141;BME280;24875;48.436;10.298;2024-02-15T02:43:32;96728.84;;;10.09;100.00
39141;BME280;24875;48.436;10.298;2024-02-15T02:45:59;96732.59;;;9.98;100.00
39141;BME280;24875;48.436;10.298;2024-02-15T02:48:26;96732.56;;;9.90;100.00
39141;BME280;24875;48.436;10.298;2024-02-15T02:50:52;96736.56;;;10.02;100.00
39141;BME280;24875;48.436;10.298;2024-02-15T02:53:19;96743.16;;;10.06;100.00
39141;BME280;24875;48.436;10.298;2024-02-15T02:55:45;96732.28;;;10.09;100.00
39141;BME280;24875;48.436;10.298;2024-02-15T02:58:12;96736.06;;;10.07;100.00
39141;BME280;24875;48.436;10.298;2024-02-15T03:00:40;96737.75;;;10.32;100.00
39141;BME280;24875;48.436;10.298;2024-02-15T03:03:07;96739.06;;;10.20;100.00
39141;BME280;24875;48.436;10.298;2024-02-15T03:05:34;96734.63;;;10.20;100.00
39141;BME280;24875;48.436;10.298;2024-02-15T03:08:01;96737.41;;;10.19;100.00
39141;BME280;24875;48.436;10.298;2024-02-15T03:10:27;96736.28;;;10.21;100.00
39141;BME280;24875;48.436;10.298;2024-02-15T03:12:54;96731.00;;;10.21;100.00
39141;BME280;24875;48.436;10.298;2024-02-15T03:15:21;96736.75;;;10.17;100.00
39141;BME280;24875;48.436;10.298;2024-02-15T03:17:49;96725.56;;;10.31;100.00
39141;BME280;24875;48.436;10.298;2024-02-15T03:20:16;96731.31;;;10.18;100.00
39141;BME280;24875;48.436;10.298;2024-02-15T03:22:50;96729.53;;;10.34;100.00
39141;BME280;24875;48.436;10.298;2024-02-15T03:25:17;96724.91;;;10.21;100.00
39141;BME280;24875;48.436;10.298;2024-02-15T03:27:44;96726.56;;;10.22;100.00
39141;BME280;24875;48.436;10.298;2024-02-15T03:30:11;96724.41;;;10.17;100.00
39141;BME280;24875;48.436;10.298;2024-02-15T03:32:38;96723.75;;;10.07;100.00
39141;BME280;24875;48.436;10.298;2024-02-15T03:35:07;96723.75;;;10.23;100.00
39141;BME280;24875;48.436;10.298;2024-02-15T03:37:34;96725.72;;;10.13;100.00
39141;BME280;24875;48.436;10.298;2024-02-15T03:40:05;96719.78;;;10.27;100.00
39141;BME280;24875;48.436;10.298;2024-02-15T03:42:33;96726.03;;;10.18;100.00
39141;BME280;24875;48.436;10.298;2024-02-15T03:45:02;96721.78;;;10.17;100.00
39141;BME280;24875;48.436;10.298;2024-02-15T03:47:28;96726.38;;;10.23;100.00
39141;BME280;24875;48.436;10.298;2024-02-15T03:49:55;96728.38;;;10.21;100.00
39141;BME280;24875;48.436;10.298;2024-02-15T03:52:23;96723.91;;;10.30;100.00
39141;BME280;24875;48.436;10.298;2024-02-15T03:54:50;96729.00;;;10.07;100.00
39141;BME280;24875;48.436;10.298;2024-02-15T03:57:17;96732.97;;;10.11;100.00
39141;BME280;24875;48.436;10.298;2024-02-15T03:59:46;96731.31;;;10.18;100.00
39141;BME280;24875;48.436;10.298;2024-02-15T04:02:15;96718.31;;;10.17;100.00
39141;BME280;24875;48.436;10.298;2024-02-15T04:04:42;96721.75;;;10.09;100.00
39141;BME280;24875;48.436;10.298;2024-02-15T04:07:12;96721.09;;;10.07;100.00
39141;BME280;24875;48.436;10.298;2024-02-15T04:09:40;96721.44;;;10.20;100.00
39141;BME280;24875;48.436;10.298;2024-02-15T04:12:06;96720.94;;;10.01;100.00
39141;BME280;24875;48.436;10.298;2024-02-15T04:14:33;96723.19;;;9.88;100.00
39141;BME280;24875;48.436;10.298;2024-02-15T04:17:00;96721.00;;;9.83;100.00
39141;BME280;24875;48.436;10.298;2024-02-15T04:19:26;96721.81;;;9.76;100.00
39141;BME280;24875;48.436;10.298;2024-02-15T04:21:53;96725.28;;;9.76;100.00
39141;BME280;24875;48.436;10.298;2024-02-15T04:24:20;96719.69;;;9.71;100.00
39141;BME280;24875;48.436;10.298;2024-02-15T04:26:48;96722.00;;;9.82;100.00
39141;BME280;24875;48.436;10.298;2024-02-15T04:29:15;96713.25;;;9.66;100.00
39141;BME280;24875;48.436;10.298;2024-02-15T04:31:43;96716.69;;;9.59;100.00
39141;BME280;24875;48.436;10.298;2024-02-15T04:34:09;96715.47;;;9.53;100.00
39141;BME280;24875;48.436;10.298;2024-02-15T04:36:36;96712.38;;;9.50;100.00
39141;BME280;24875;48.436;10.298;2024-02-15T04:39:03;96713.34;;;9.49;100.00
39141;BME280;24875;48.436;10.298;2024-02-15T04:41:29;96716.25;;;9.38;100.00
39141;BME280;24875;48.436;10.298;2024-02-15T04:43:57;96704.94;;;9.45;100.00
39141;BME280;24875;48.436;10.298;2024-02-15T04:46:24;96712.53;;;9.15;100.00
39141;BME280;24875;48.436;10.298;2024-02-15T04:48:51;96715.31;;;9.13;100.00
39141;BME280;24875;48.436;10.298;2024-02-15T04:51:17;96709.84;;;9.07;100.00
39141;BME280;24875;48.436;10.298;2024-02-15T04:53:45;96706.94;;;9.10;100.00
39141;BME280;24875;48.436;10.298;2024-02-15T04:56:12;96708.53;;;9.03;100.00
39141;BME280;24875;48.436;10.298;2024-02-15T04:58:40;96708.53;;;9.03;100.00
39141;BME280;24875;48.436;10.298;2024-02-15T05:01:13;96712.19;;;9.10;100.00
39141;BME280;24875;48.436;10.298;2024-02-15T05:03:40;96715.97;;;8.82;100.00
39141;BME280;24875;48.436;10.298;2024-02-15T05:06:07;96717.16;;;8.88;100.00
39141;BME280;24875;48.436;10.298;2024-02-15T05:08:35;96708.44;;;8.87;100.00
39141;BME280;24875;48.436;10.298;2024-02-15T05:11:07;96715.25;;;8.72;100.00
39141;BME280;24875;48.436;10.298;2024-02-15T05:13:38;96719.69;;;8.72;100.00
39141;BME280;24875;48.436;10.298;2024-02-15T05:16:05;96724.31;;;8.78;100.00
39141;BME280;24875;48.436;10.298;2024-02-15T05:18:33;96725.94;;;8.53;100.00
39141;BME280;24875;48.436;10.298;2024-02-15T05:21:00;96726.84;;;8.45;100.00
39141;BME280;24875;48.436;10.298;2024-02-15T05:23:28;96732.41;;;8.24;100.00
39141;BME280;24875;48.436;10.298;2024-02-15T05:25:55;96727.97;;;8.25;100.00
39141;BME280;24875;48.436;10.298;2024-02-15T05:28:23;96730.38;;;8.01;100.00
39141;BME280;24875;48.436;10.298;2024-02-15T05:31:08;96727.59;;;8.37;100.00
39141;BME280;24875;48.436;10.298;2024-02-15T05:33:37;96714.63;;;8.18;100.00
39141;BME280;24875;48.436;10.298;2024-02-15T05:36:06;96724.97;;;8.02;100.00
39141;BME280;24875;48.436;10.298;2024-02-15T05:38:34;96718.75;;;8.03;100.00
39141;BME280;24875;48.436;10.298;2024-02-15T05:41:00;96725.88;;;7.93;100.00
39141;BME280;24875;48.436;10.298;2024-02-15T05:43:28;96721.91;;;7.89;100.00
39141;BME280;24875;48.436;10.298;2024-02-15T05:45:55;96728.69;;;7.83;100.00
39141;BME280;24875;48.436;10.298;2024-02-15T05:48:24;96727.81;;;7.74;100.00
39141;BME280;24875;48.436;10.298;2024-02-15T05:50:52;96722.84;;;7.88;100.00
39141;BME280;24875;48.436;10.298;2024-02-15T05:53:19;96722.16;;;7.69;100.00
39141;BME280;24875;48.436;10.298;2024-02-15T05:55:46;96713.34;;;7.70;100.00
39141;BME280;24875;48.436;10.298;2024-02-15T05:58:15;96711.84;;;7.68;100.00
39141;BME280;24875;48.436;10.298;2024-02-15T06:00:42;96721.50;;;7.40;100.00
39141;BME280;24875;48.436;10.298;2024-02-15T06:03:09;96727.38;;;7.25;100.00
39141;BME280;24875;48.436;10.298;2024-02-15T06:05:38;96728.00;;;7.10;100.00
39141;BME280;24875;48.436;10.298;2024-02-15T06:08:06;96725.19;;;7.47;100.00
39141;BME280;24875;48.436;10.298;2024-02-15T06:10:33;96734.22;;;7.35;100.00
39141;BME280;24875;48.436;10.298;2024-02-15T06:12:59;96733.47;;;7.16;100.00
39141;BME280;24875;48.436;10.298;2024-02-15T06:15:26;96732.66;;;7.16;100.00
39141;BME280;24875;48.436;10.298;2024-02-15T06:17:53;96722.34;;;7.05;100.00
39141;BME280;24875;48.436;10.298;2024-02-15T06:20:19;96731.19;;;7.04;100.00
39141;BME280;24875;48.436;10.298;2024-02-15T06:22:46;96723.91;;;6.98;100.00
39141;BME280;24875;48.436;10.298;2024-02-15T06:25:15;96730.81;;;6.99;100.00
39141;BME280;24875;48.436;10.298;2024-02-15T06:27:45;96733.28;;;6.91;100.00
39141;BME280;24875;48.436;10.298;2024-02-15T06:30:14;96737.81;;;7.08;100.00
39141;BME280;24875;48.436;10.298;2024-02-15T06:32:58;96742.91;;;7.00;100.00
39141;BME280;24875;48.436;10.298;2024-02-15T06:35:38;96735.50;;;6.95;100.00
39141;BME280;24875;48.436;10.298;2024-02-15T06:38:23;96741.31;;;6.89;100.00
39141;BME280;24875;48.436;10.298;2024-02-15T06:41:08;96744.88;;;6.98;100.00
39141;BME280;24875;48.436;10.298;2024-02-15T06:43:35;96745.88;;;6.78;100.00
39141;BME280;24875;48.436;10.298;2024-02-15T06:46:02;96743.66;;;6.83;100.00
39141;BME280;24875;48.436;10.298;2024-02-15T06:48:29;96739.38;;;6.82;100.00
39141;BME280;24875;48.436;10.298;2024-02-15T06:50:56;96736.25;;;6.78;100.00
39141;BME280;24875;48.436;10.298;2024-02-15T06:53:23;96735.00;;;6.82;100.00
39141;BME280;24875;48.436;10.298;2024-02-15T06:55:50;96741.88;;;6.83;100.00
39141;BME280;24875;48.436;10.298;2024-02-15T06:58:17;96734.66;;;7.04;100.00
39141;BME280;24875;48.436;10.298;2024-02-15T07:00:45;96744.19;;;6.96;100.00
39141;BME280;24875;48.436;10.298;2024-02-15T07:03:13;96744.63;;;6.82;100.00
39141;BME280;24875;48.436;10.298;2024-02-15T07:05:42;96746.28;;;6.83;100.00
39141;BME280;24875;48.436;10.298;2024-02-15T07:08:08;96737.88;;;6.89;100.00
39141;BME280;24875;48.436;10.298;2024-02-15T07:10:37;96738.06;;;7.05;100.00
39141;BME280;24875;48.436;10.298;2024-02-15T07:13:03;96743.31;;;7.05;100.00
39141;BME280;24875;48.436;10.298;2024-02-15T07:15:33;96742.84;;;7.19;100.00
39141;BME280;24875;48.436;10.298;2024-02-15T07:18:03;96736.41;;;7.04;100.00
39141;BME280;24875;48.436;10.298;2024-02-15T07:20:31;96736.81;;;7.09;100.00
39141;BME280;24875;48.436;10.298;2024-02-15T07:22:58;96735.91;;;7.00;100.00
39141;BME280;24875;48.436;10.298;2024-02-15T07:25:24;96735.66;;;6.84;100.00
39141;BME280;24875;48.436;10.298;2024-02-15T07:27:51;96735.97;;;6.81;100.00
39141;BME280;24875;48.436;10.298;2024-02-15T07:30:17;96733.03;;;6.94;100.00
39141;BME280;24875;48.436;10.298;2024-02-15T07:32:46;96732.19;;;6.93;100.00
39141;BME280;24875;48.436;10.298;2024-02-15T07:35:12;96738.13;;;6.95;100.00
39141;BME280;24875;48.436;10.298;2024-02-15T07:37:51;96738.81;;;7.51;100.00
39141;BME280;24875;48.436;10.298;2024-02-15T07:40:17;96738.59;;;7.44;100.00
39141;BME280;24875;48.436;10.298;2024-02-15T07:42:44;96744.81;;;7.43;100.00
39141;BME280;24875;48.436;10.298;2024-02-15T07:45:11;96745.72;;;7.52;100.00
39141;BME280;24875;48.436;10.298;2024-02-15T07:47:38;96743.69;;;7.73;100.00
39141;BME280;24875;48.436;10.298;2024-02-15T07:50:06;96735.41;;;7.94;100.00
39141;BME280;24875;48.436;10.298;2024-02-15T07:52:34;96738.38;;;7.82;100.00
39141;BME280;24875;48.436;10.298;2024-02-15T07:55:01;96735.66;;;7.91;100.00
39141;BME280;24875;48.436;10.298;2024-02-15T07:57:34;96733.16;;;8.17;100.00
39141;BME280;24875;48.436;10.298;2024-02-15T08:00:00;96727.00;;;8.26;100.00
39141;BME280;24875;48.436;10.298;2024-02-15T08:02:27;96721.59;;;8.45;100.00
39141;BME280;24875;48.436;10.298;2024-02-15T08:04:53;96720.69;;;8.53;100.00
39141;BME280;24875;48.436;10.298;2024-02-15T08:07:21;96720.19;;;8.75;100.00
39141;BME280;24875;48.436;10.298;2024-02-15T08:09:48;96720.28;;;8.66;100.00
39141;BME280;24875;48.436;10.298;2024-02-15T08:12:16;96708.69;;;8.76;100.00
39141;BME280;24875;48.436;10.298;2024-02-15T08:14:44;96714.03;;;8.92;100.00
39141;BME280;24875;48.436;10.298;2024-02-15T08:17:10;96711.28;;;9.27;100.00
39141;BME280;24875;48.436;10.298;2024-02-15T08:19:39;96707.72;;;9.44;100.00
39141;BME280;24875;48.436;10.298;2024-02-15T08:22:07;96706.25;;;9.49;100.00
39141;BME280;24875;48.436;10.298;2024-02-15T08:24:36;96703.09;;;9.79;100.00
39141;BME280;24875;48.436;10.298;2024-02-15T08:27:02;96699.63;;;9.78;100.00
39141;BME280;24875;48.436;10.298;2024-02-15T08:29:30;96695.03;;;9.80;100.00
39141;BME280;24875;48.436;10.298;2024-02-15T08:31:56;96696.00;;;9.87;100.00
39141;BME280;24875;48.436;10.298;2024-02-15T08:34:23;96697.91;;;10.27;100.00
39141;BME280;24875;48.436;10.298;2024-02-15T08:36:50;96697.44;;;10.39;100.00
39141;BME280;24875;48.436;10.298;2024-02-15T08:39:16;96698.56;;;10.44;100.00
39141;BME280;24875;48.436;10.298;2024-02-15T08:41:44;96693.78;;;10.72;100.00
39141;BME280;24875;48.436;10.298;2024-02-15T08:44:11;96692.63;;;10.82;100.00
39141;BME280;24875;48.436;10.298;2024-02-15T08:46:40;96689.97;;;10.90;100.00
39141;BME280;24875;48.436;10.298;2024-02-15T08:49:07;96684.50;;;10.92;100.00
39141;BME280;24875;48.436;10.298;2024-02-15T08:51:33;96680.66;;;11.18;100.00
39141;BME280;24875;48.436;10.298;2024-02-15T08:54:00;96679.91;;;10.86;100.00
39141;BME280;24875;48.436;10.298;2024-02-15T08:56:26;96680.22;;;10.98;100.00
39141;BME280;24875;48.436;10.298;2024-02-15T08:58:54;96677.28;;;11.40;100.00
39141;BME280;24875;48.436;10.298;2024-02-15T09:01:22;96677.63;;;11.29;100.00
39141;BME280;24875;48.436;10.298;2024-02-15T09:03:49;96677.16;;;11.33;100.00
39141;BME280;24875;48.436;10.298;2024-02-15T09:06:15;96675.13;;;11.43;100.00
39141;BME280;24875;48.436;10.298;2024-02-15T09:08:42;96670.47;;;11.53;100.00
39141;BME280;24875;48.436;10.298;2024-02-15T09:11:08;96667.09;;;11.75;100.00
39141;BME280;24875;48.436;10.298;2024-02-15T09:13:37;96651.50;;;11.88;100.00
39141;BME280;24875;48.436;10.298;2024-02-15T09:16:05;96672.56;;;11.96;100.00
39141;BME280;24875;48.436;10.298;2024-02-15T09:18:32;96662.94;;;12.25;100.00
39141;BME280;24875;48.436;10.298;2024-02-15T09:20:59;96657.06;;;11.93;100.00
39141;BME280;24875;48.436;10.298;2024-02-15T09:23:26;96651.41;;;11.73;100.00
39141;BME280;24875;48.436;10.298;2024-02-15T09:25:52;96648.63;;;11.67;100.00
39141;BME280;24875;48.436;10.298;2024-02-15T09:28:19;96648.03;;;12.10;100.00
39141;BME280;24875;48.436;10.298;2024-02-15T09:30:47;96634.63;;;12.33;100.00
39141;BME280;24875;48.436;10.298;2024-02-15T09:33:18;96633.56;;;12.42;100.00
39141;BME280;24875;48.436;10.298;2024-02-15T09:35:44;96631.75;;;12.20;100.00
39141;BME280;24875;48.436;10.298;2024-02-15T09:38:11;96624.03;;;12.70;100.00
39141;BME280;24875;48.436;10.298;2024-02-15T09:40:38;96623.06;;;12.85;98.86
39141;BME280;24875;48.436;10.298;2024-02-15T09:43:06;96615.44;;;13.05;97.15
39141;BME280;24875;48.436;10.298;2024-02-15T09:45:32;96611.03;;;13.12;96.26
39141;BME280;24875;48.436;10.298;2024-02-15T09:48:05;96602.81;;;13.36;96.91
39141;BME280;24875;48.436;10.298;2024-02-15T09:50:35;96605.38;;;13.29;98.77
39141;BME280;24875;48.436;10.298;2024-02-15T09:53:05;96601.00;;;13.22;100.00
39141;BME280;24875;48.436;10.298;2024-02-15T09:55:34;96608.31;;;12.91;100.00
39141;BME280;24875;48.436;10.298;2024-02-15T09:58:01;96599.09;;;13.30;97.54
39141;BME280;24875;48.436;10.298;2024-02-15T10:00:30;96600.28;;;13.28;98.62
39141;BME280;24875;48.436;10.298;2024-02-15T10:02:57;96593.19;;;13.49;98.07
39141;BME280;24875;48.436;10.298;2024-02-15T10:05:26;96590.44;;;13.57;95.62
39141;BME280;24875;48.436;10.298;2024-02-15T10:07:54;96588.34;;;13.88;95.08
39141;BME280;24875;48.436;10.298;2024-02-15T10:10:24;96591.41;;;13.91;94.87
39141;BME280;24875;48.436;10.298;2024-02-15T10:12:53;96602.50;;;13.80;96.20
39141;BME280;24875;48.436;10.298;2024-02-15T10:15:34;96599.03;;;14.15;95.82
39141;BME280;24875;48.436;10.298;2024-02-15T10:18:02;96591.25;;;13.93;98.00
39141;BME280;24875;48.436;10.298;2024-02-15T10:20:28;96596.28;;;13.88;95.54
39141;BME280;24875;48.436;10.298;2024-02-15T10:23:09;96591.38;;;14.05;98.63
39141;BME280;24875;48.436;10.298;2024-02-15T10:25:36;96589.00;;;14.10;97.15
39141;BME280;24875;48.436;10.298;2024-02-15T10:28:04;96590.97;;;14.29;96.38
39141;BME280;24875;48.436;10.298;2024-02-15T10:30:33;96586.88;;;14.48;96.86
39141;BME280;24875;48.436;10.298;2024-02-15T10:33:00;96586.13;;;14.33;96.73
39141;BME280;24875;48.436;10.298;2024-02-15T10:35:27;96585.00;;;14.69;96.39
39141;BME280;24875;48.436;10.298;2024-02-15T10:38:06;96586.38;;;14.92;96.97
39141;BME280;24875;48.436;10.298;2024-02-15T10:40:34;96566.53;;;14.88;97.86
39141;BME280;24875;48.436;10.298;2024-02-15T10:43:02;96568.47;;;15.01;95.66
39141;BME280;24875;48.436;10.298;2024-02-15T10:45:30;96560.69;;;15.06;95.83
39141;BME280;24875;48.436;10.298;2024-02-15T10:47:57;96560.66;;;14.99;94.36
39141;BME280;24875;48.436;10.298;2024-02-15T10:50:23;96556.69;;;14.82;95.20
39141;BME280;24875;48.436;10.298;2024-02-15T10:52:54;96559.50;;;15.08;96.15
39141;BME280;24875;48.436;10.298;2024-02-15T10:55:30;96553.97;;;15.03;98.46
39141;BME280;24875;48.436;10.298;2024-02-15T10:58:02;96543.84;;;14.79;99.37
39141;BME280;24875;48.436;10.298;2024-02-15T11:00:30;96547.75;;;14.83;100.00
39141;BME280;24875;48.436;10.298;2024-02-15T11:03:01;96541.34;;;14.71;100.00
39141;BME280;24875;48.436;10.298;2024-02-15T11:05:32;96544.75;;;14.99;100.00
39141;BME280;24875;48.436;10.298;2024-02-15T11:08:00;96542.25;;;14.91;100.00
39141;BME280;24875;48.436;10.298;2024-02-15T11:10:28;96532.53;;;14.98;100.00
39141;BME280;24875;48.436;10.298;2024-02-15T11:12:55;96534.31;;;15.25;99.14
39141;BME280;24875;48.436;10.298;2024-02-15T11:15:44;96524.47;;;15.91;92.48
39141;BME280;24875;48.436;10.298;2024-02-15T11:18:42;96520.59;;;16.07;92.38
39141;BME280;24875;48.436;10.298;2024-02-15T11:21:09;96515.84;;;15.89;90.72
39141;BME280;24875;48.436;10.298;2024-02-15T11:23:36;96514.63;;;15.85;92.50
39141;BME280;24875;48.436;10.298;2024-02-15T11:26:08;96508.94;;;16.21;90.43
39141;BME280;24875;48.436;10.298;2024-02-15T11:28:39;96508.72;;;16.09;94.13
39141;BME280;24875;48.436;10.298;2024-02-15T11:31:09;96513.41;;;16.20;93.73
39141;BME280;24875;48.436;10.298;2024-02-15T11:33:37;96502.56;;;15.70;97.45
39141;BME280;24875;48.436;10.298;2024-02-15T11:36:05;96506.66;;;15.98;95.09
39141;BME280;24875;48.436;10.298;2024-02-15T11:38:32;96490.34;;;15.95;97.02
39141;BME280;24875;48.436;10.298;2024-02-15T11:41:00;96489.25;;;15.64;97.66
39141;BME280;24875;48.436;10.298;2024-02-15T11:43:49;96479.50;;;15.84;98.68
39141;BME280;24875;48.436;10.298;2024-02-15T11:46:20;96479.88;;;15.81;100.00
39141;BME280;24875;48.436;10.298;2024-02-15T11:48:47;96482.34;;;15.88;98.06
39141;BME280;24875;48.436;10.298;2024-02-15T11:51:27;96476.03;;;16.15;99.46
39141;BME280;24875;48.436;10.298;2024-02-15T11:54:07;96480.41;;;16.86;92.78
39141;BME280;24875;48.436;10.298;2024-02-15T11:57:04;96474.66;;;16.89;91.83
39141;BME280;24875;48.436;10.298;2024-02-15T11:59:43;96468.63;;;17.12;85.04
39141;BME280;24875;48.436;10.298;2024-02-15T12:02:19;96473.19;;;17.06;82.35
39141;BME280;24875;48.436;10.298;2024-02-15T12:05:04;96470.47;;;17.18;81.96
39141;BME280;24875;48.436;10.298;2024-02-15T12:07:53;96454.63;;;17.36;82.41
39141;BME280;24875;48.436;10.298;2024-02-15T12:10:37;96462.97;;;17.46;81.58
39141;BME280;24875;48.436;10.298;2024-02-15T12:13:27;96470.53;;;17.49;78.40
39141;BME280;24875;48.436;10.298;2024-02-15T12:16:15;96466.75;;;17.19;79.23
39141;BME280;24875;48.436;10.298;2024-02-15T12:18:59;96465.75;;;17.14;79.15
39141;BME280;24875;48.436;10.298;2024-02-15T12:21:28;96467.78;;;17.62;76.20
39141;BME280;24875;48.436;10.298;2024-02-15T12:23:55;96463.34;;;17.50;77.33
39141;BME280;24875;48.436;10.298;2024-02-15T12:26:22;96455.97;;;17.52;77.58
39141;BME280;24875;48.436;10.298;2024-02-15T12:28:52;96450.91;;;16.87;78.70
39141;BME280;24875;48.436;10.298;2024-02-15T12:31:21;96459.09;;;17.73;77.16
39141;BME280;24875;48.436;10.298;2024-02-15T12:33:59;96454.69;;;18.16;75.43
39141;BME280;24875;48.436;10.298;2024-02-15T12:36:26;96447.88;;;17.95;74.59
39141;BME280;24875;48.436;10.298;2024-02-15T12:38:58;96448.25;;;17.99;75.71
39141;BME280;24875;48.436;10.298;2024-02-15T12:41:25;96445.31;;;18.07;74.34
39141;BME280;24875;48.436;10.298;2024-02-15T12:43:52;96440.53;;;18.39;73.78
39141;BME280;24875;48.436;10.298;2024-02-15T12:46:20;96432.63;;;18.51;72.01
39141;BME280;24875;48.436;10.298;2024-02-15T12:48:47;96441.63;;;18.08;72.61
39141;BME280;24875;48.436;10.298;2024-02-15T12:51:15;96437.41;;;18.42;72.59
39141;BME280;24875;48.436;10.298;2024-02-15T12:53:41;96437.16;;;18.02;72.95